Impacts METAR Board
IDs:

KFLL - Ft Lauderdale-Hollyw, FL, US

Updated at: 1000 UTC 18 Jan 2019
Potential Impact None Slight Moderate High
Time 17/22Z 17/23Z 18/00Z 18/01Z 18/02Z 18/03Z 18/04Z 18/05Z 18/06Z 18/07Z 18/08Z 18/09Z 18/10Z
Temp73 71 70 70 69 70 70 69 64 65 63 62 61
Dewpt63 63 63 64 64 64 64 64 63 63 62 62 59
Altim30.13 30.14 30.15 30.17 30.17 30.17 30.17 30.16 30.16 30.15 30.14 30.13 30.12
VIS10 10 10 10 10 10 10 10 10 10 10 10 10
CIG-- -- -- -- -- -- -- -- -- 46 -- -- --
CoverCLRCLRCLRFEWCLRCLRCLRCLRCLROVCCLRCLRCLR
FltCatVFRVFRVFRVFRVFRVFRVFRVFRVFRVFRVFRVFRVFR
WX--------------------------
WDir90100100905000230300320320320310
WSpd4 6 4 3 3 0 0 3 4 4 6 6 3
WGst-- -- -- -- -- -- -- -- -- -- -- -- --
Raw hourly METARs
KFLL 172153Z AUTO 09004KT 10SM CLR 23/17 A3013 RMK AO2 SLP204 T02280172
KFLL 172253Z AUTO 10006KT 10SM CLR 22/17 A3014 RMK AO2 SLP204 T02170172
KFLL 172353Z AUTO 10004KT 10SM CLR 21/17 A3015 RMK AO2 SLP210 T02110172 10250 20211 53006
KFLL 180053Z AUTO 09003KT 10SM FEW024 21/18 A3017 RMK AO2 SLP215 T02110178
KFLL 180153Z AUTO 05003KT 10SM CLR 21/18 A3017 RMK AO2 SLP216 T02060178
KFLL 180253Z AUTO 00000KT 10SM CLR 21/18 A3017 RMK AO2 SLP217 T02110178 51007
KFLL 180353Z AUTO 00000KT 10SM CLR 21/18 A3017 RMK AO2 SLP215 T02110178
KFLL 180453Z AUTO 23003KT 10SM CLR 21/18 A3016 RMK AO2 SLP212 T02060178 402500128
KFLL 180553Z AUTO 30004KT 10SM CLR 18/17 A3016 RMK AO2 SLP212 T01780172 10211 20178 56006
KFLL 180653Z AUTO 32004KT 10SM OVC046 18/17 A3015 RMK AO2 SLP209 T01830172
KFLL 180753Z AUTO 32006KT 10SM CLR 17/17 A3014 RMK AO2 SLP205 T01720167
KFLL 180853Z AUTO 32006KT 10SM CLR 17/17 A3013 RMK AO2 SLP204 T01670167 56008
KFLL 180953Z AUTO 31003KT 10SM CLR 16/15 A3012 RMK AO2 SLP200 T01610150



Page loaded:  10:32 UTC  |   02:32 AM Pacific  |   03:32 AM Mountain  |   04:32 AM Central  |   05:32 AM Eastern

 

ADVISORIES

FORECASTS

FORECASTS

OBSERVATIONS

USER TOOLS

ABOUT US